createdAt,value
2022-09-01T00:01:48.049Z,13.73
2022-09-01T00:04:20.365Z,14.48
2022-09-01T00:06:48.483Z,13.68
2022-09-01T00:09:18.562Z,16.40
2022-09-01T00:11:50.624Z,16.60
2022-09-01T00:14:29.881Z,13.32
2022-09-01T00:17:02.701Z,15.80
2022-09-01T00:21:57.083Z,14.68
2022-09-01T00:24:26.067Z,14.82
2022-09-01T00:26:53.576Z,13.63
2022-09-01T00:29:20.347Z,15.32
2022-09-01T00:31:47.879Z,13.38
2022-09-01T00:34:15.300Z,13.88
2022-09-01T00:36:42.296Z,17.88
2022-09-01T00:39:09.695Z,14.35
2022-09-01T00:41:39.632Z,18.00
2022-09-01T00:44:11.864Z,15.57
2022-09-01T00:46:47.664Z,17.13
2022-09-01T00:49:34.993Z,15.20
2022-09-01T00:52:09.860Z,17.38
2022-09-01T00:54:41.519Z,18.42
2022-09-01T00:59:39.373Z,21.52
2022-09-01T01:02:06.169Z,17.92
2022-09-01T01:04:32.636Z,18.40
2022-09-01T01:07:03.989Z,17.80
2022-09-01T01:09:36.085Z,18.98
2022-09-01T01:12:05.177Z,19.85
2022-09-01T01:14:32.227Z,19.35
2022-09-01T01:17:00.513Z,15.77
2022-09-01T01:20:05.676Z,17.70
2022-09-01T01:23:05.372Z,18.20
2022-09-01T01:28:18.303Z,15.60
2022-09-01T01:31:03.085Z,18.83
2022-09-01T01:33:42.602Z,19.17
2022-09-01T01:36:14.306Z,16.75
2022-09-01T01:38:44.004Z,17.73
2022-09-01T01:41:15.072Z,18.73
2022-09-01T01:43:41.928Z,23.50
2022-09-01T01:46:10.166Z,20.58
2022-09-01T01:48:40.879Z,22.10
2022-09-01T01:51:08.628Z,22.67
2022-09-01T01:53:35.416Z,25.48
2022-09-01T01:56:02.765Z,40.80
2022-09-01T01:58:34.799Z,47.70
2022-09-01T02:01:10.679Z,69.90
2022-09-01T02:03:38.516Z,75.13
2022-09-01T02:06:11.785Z,62.05
2022-09-01T02:08:40.679Z,54.75
2022-09-01T02:11:08.589Z,46.97
2022-09-01T02:13:35.171Z,59.53
2022-09-01T02:16:05.742Z,91.03
2022-09-01T02:18:38.628Z,50.38
2022-09-01T02:21:15.170Z,44.47
2022-09-01T02:23:43.167Z,43.28
2022-09-01T02:26:16.548Z,40.60
2022-09-01T02:28:50.905Z,41.75
2022-09-01T02:31:20.906Z,55.63
2022-09-01T02:33:48.584Z,62.45
2022-09-01T02:36:19.172Z,57.55
2022-09-01T02:38:53.155Z,88.13
2022-09-01T02:41:23.610Z,63.00
2022-09-01T02:43:50.721Z,85.18
2022-09-01T02:46:20.239Z,76.35
2022-09-01T02:48:51.334Z,71.72
2022-09-01T02:51:20.312Z,63.05
2022-09-01T02:53:53.044Z,58.17
2022-09-01T02:56:22.757Z,62.38
2022-09-01T02:58:53.209Z,57.25
2022-09-01T03:01:29.179Z,53.67
2022-09-01T03:04:00.367Z,51.97
2022-09-01T03:06:28.108Z,47.40
2022-09-01T03:09:00.095Z,46.08
2022-09-01T03:11:29.914Z,45.78
2022-09-01T03:13:56.646Z,46.55
2022-09-01T03:16:23.587Z,43.60
2022-09-01T03:18:51.601Z,43.08
2022-09-01T03:21:19.681Z,42.03
2022-09-01T03:23:49.779Z,51.88
2022-09-01T03:26:19.338Z,43.72
2022-09-01T03:28:46.539Z,59.47
2022-09-01T03:31:13.952Z,104.25
2022-09-01T03:33:42.090Z,86.85
2022-09-01T03:36:19.329Z,101.28
2022-09-01T03:38:48.780Z,143.35
2022-09-01T03:41:18.565Z,108.38
2022-09-01T03:43:47.333Z,69.55
2022-09-01T03:46:21.274Z,117.75
2022-09-01T03:48:50.756Z,128.70
2022-09-01T03:51:20.616Z,165.40
2022-09-01T03:53:47.302Z,141.00
2022-09-01T03:56:15.237Z,117.75
2022-09-01T03:58:46.968Z,81.45
2022-09-01T04:01:16.213Z,68.55
2022-09-01T04:03:45.517Z,54.80
2022-09-01T04:06:12.621Z,68.32
2022-09-01T04:08:40.563Z,59.03
2022-09-01T04:11:18.489Z,72.32
2022-09-01T04:13:47.299Z,58.45
2022-09-01T04:16:38.850Z,54.85
2022-09-01T04:19:15.778Z,51.88
2022-09-01T04:21:44.725Z,82.70
2022-09-01T04:24:15.524Z,102.30
2022-09-01T04:26:45.960Z,142.33
2022-09-01T04:29:13.165Z,77.68
2022-09-01T04:31:40.753Z,114.30
2022-09-01T04:34:13.893Z,87.88
2022-09-01T04:36:44.724Z,138.07
2022-09-01T04:39:12.353Z,147.60
2022-09-01T04:41:46.068Z,189.93
2022-09-01T04:44:18.868Z,171.65
2022-09-01T04:46:47.892Z,95.95
2022-09-01T04:49:19.463Z,113.00
2022-09-01T04:51:53.266Z,73.13
2022-09-01T04:54:22.517Z,81.50
2022-09-01T04:56:52.558Z,85.10
2022-09-01T04:59:23.018Z,78.30
2022-09-01T05:01:55.556Z,58.50
2022-09-01T05:04:27.289Z,46.20
2022-09-01T05:09:25.154Z,35.30
2022-09-01T05:12:15.956Z,36.75
2022-09-01T05:14:48.475Z,35.72
2022-09-01T05:17:18.677Z,29.73
2022-09-01T05:19:48.129Z,31.77
2022-09-01T05:22:17.665Z,30.70
2022-09-01T05:24:54.903Z,32.65
2022-09-01T05:27:22.788Z,33.83
2022-09-01T05:29:50.370Z,31.02
2022-09-01T05:32:17.245Z,37.70
2022-09-01T05:34:45.164Z,29.92
2022-09-01T05:37:14.459Z,27.15
2022-09-01T05:39:40.967Z,29.20
2022-09-01T05:42:08.379Z,31.17
2022-09-01T05:44:39.381Z,33.60
2022-09-01T05:47:06.352Z,39.45
2022-09-01T05:49:33.137Z,40.00
2022-09-01T05:52:02.833Z,36.38
2022-09-01T05:54:32.536Z,36.88
2022-09-01T05:57:17.314Z,36.17
2022-09-01T05:59:45.989Z,37.50
2022-09-01T06:02:17.795Z,38.42
2022-09-01T06:04:44.460Z,33.35
2022-09-01T06:07:17.507Z,36.17
2022-09-01T06:09:49.880Z,35.80
2022-09-01T06:12:20.326Z,36.67
2022-09-01T06:14:48.320Z,34.58
2022-09-01T06:17:18.532Z,35.03
2022-09-01T06:19:46.697Z,34.08
2022-09-01T06:22:13.641Z,34.40
2022-09-01T06:24:40.889Z,30.75
2022-09-01T06:27:10.480Z,34.70
2022-09-01T06:29:41.615Z,27.48
2022-09-01T06:32:10.290Z,25.63
2022-09-01T06:34:42.791Z,25.42
2022-09-01T06:37:10.839Z,27.10
2022-09-01T06:39:38.207Z,26.63
2022-09-01T06:42:06.364Z,26.65
2022-09-01T06:44:46.015Z,26.13
2022-09-01T06:47:13.005Z,23.48
2022-09-01T06:49:41.041Z,24.77
2022-09-01T06:52:16.981Z,24.13
2022-09-01T06:54:44.207Z,22.15
2022-09-01T06:59:57.897Z,22.95
2022-09-01T07:02:26.506Z,22.58
2022-09-01T07:08:22.370Z,24.08
2022-09-01T07:12:08.152Z,22.15
2022-09-01T07:16:52.312Z,20.77
2022-09-01T07:19:20.884Z,20.63
2022-09-01T07:22:08.605Z,22.75
2022-09-01T07:24:40.020Z,22.55
2022-09-01T07:27:35.603Z,20.75
2022-09-01T07:30:03.353Z,21.80
2022-09-01T07:35:22.241Z,19.50
2022-09-01T07:38:48.459Z,18.33
2022-09-01T07:44:10.253Z,17.20
2022-09-01T07:47:52.477Z,22.40
2022-09-01T07:50:24.556Z,22.25
2022-09-01T07:52:49.666Z,18.77
2022-09-01T07:55:17.293Z,18.80
2022-09-01T07:57:46.199Z,18.60
2022-09-01T08:00:15.672Z,16.80
2022-09-01T08:02:47.054Z,19.02
2022-09-01T08:05:22.309Z,17.63
2022-09-01T08:07:52.549Z,15.30
2022-09-01T08:10:21.961Z,18.30
2022-09-01T08:12:56.988Z,17.83
2022-09-01T08:15:41.802Z,18.45
2022-09-01T08:18:14.750Z,16.42
2022-09-01T08:20:47.212Z,17.13
2022-09-01T08:23:29.993Z,15.90
2022-09-01T08:25:56.536Z,17.55
2022-09-01T08:28:27.253Z,15.73
2022-09-01T08:30:55.483Z,14.95
2022-09-01T08:33:23.645Z,15.45
2022-09-01T08:35:50.310Z,16.73
2022-09-01T08:38:18.952Z,14.55
2022-09-01T08:40:56.361Z,14.10
2022-09-01T08:43:42.324Z,17.33
2022-09-01T08:46:16.735Z,14.02
2022-09-01T08:52:17.797Z,11.35
2022-09-01T08:54:58.702Z,13.85
2022-09-01T08:57:45.253Z,14.55
2022-09-01T09:00:39.485Z,11.73
2022-09-01T09:03:19.406Z,12.90
2022-09-01T09:06:14.966Z,10.00
2022-09-01T09:09:06.045Z,13.23
2022-09-01T09:11:45.095Z,11.85
2022-09-01T09:14:36.669Z,11.30
2022-09-01T09:17:04.309Z,8.73
2022-09-01T09:19:44.410Z,9.85
2022-09-01T09:22:15.387Z,8.88
2022-09-01T09:25:00.324Z,12.07
2022-09-01T09:27:37.705Z,8.57
2022-09-01T09:30:11.416Z,9.32
2022-09-01T09:33:16.078Z,11.15
2022-09-01T09:35:46.501Z,9.88
2022-09-01T09:38:21.082Z,10.00
2022-09-01T09:41:20.849Z,9.55
2022-09-01T09:44:18.509Z,9.15
2022-09-01T09:46:47.687Z,9.02
2022-09-01T09:49:34.517Z,8.55
2022-09-01T09:52:09.793Z,8.73
2022-09-01T09:54:39.170Z,12.65
2022-09-01T09:57:08.681Z,8.35
2022-09-01T10:00:00.808Z,8.45
2022-09-01T10:02:42.382Z,8.63
2022-09-01T10:05:38.909Z,7.18
2022-09-01T10:08:15.124Z,8.75
2022-09-01T10:10:44.094Z,8.18
2022-09-01T10:13:22.361Z,8.70
2022-09-01T10:15:55.910Z,7.75
2022-09-01T10:18:30.380Z,8.05
2022-09-01T10:21:08.033Z,6.75
2022-09-01T10:23:37.625Z,7.53
2022-09-01T10:26:22.789Z,7.97
2022-09-01T10:28:59.887Z,9.98
2022-09-01T10:31:29.492Z,6.45
2022-09-01T10:34:03.282Z,7.30
2022-09-01T10:36:34.677Z,7.30
2022-09-01T10:39:06.302Z,6.43
2022-09-01T10:41:59.324Z,6.45
2022-09-01T10:47:13.534Z,6.55
2022-09-01T10:49:47.125Z,6.30
2022-09-01T10:52:43.467Z,7.43
2022-09-01T10:55:23.985Z,6.28
2022-09-01T10:59:30.009Z,11.88
2022-09-01T11:01:11.239Z,8.73
2022-09-01T11:03:52.005Z,6.25
2022-09-01T11:09:41.796Z,6.13
2022-09-01T11:12:44.760Z,6.07
2022-09-01T11:15:14.056Z,9.10
2022-09-01T11:17:50.493Z,7.15
2022-09-01T11:20:40.657Z,6.75
2022-09-01T11:23:22.268Z,6.30
2022-09-01T11:28:41.587Z,6.47
2022-09-01T11:31:10.869Z,5.70
2022-09-01T11:34:03.025Z,7.20
2022-09-01T11:36:37.014Z,6.35
2022-09-01T11:39:19.216Z,5.82
2022-09-01T11:41:59.702Z,6.25
2022-09-01T11:44:38.869Z,8.10
2022-09-01T11:47:14.141Z,8.75
2022-09-01T11:49:50.069Z,4.78
2022-09-01T11:52:19.213Z,4.70
2022-09-01T11:54:48.592Z,4.80
2022-09-01T11:57:25.709Z,4.25
2022-09-01T11:59:53.233Z,4.97
2022-09-01T12:02:26.374Z,5.82
2022-09-01T12:04:55.226Z,5.07
2022-09-01T12:07:44.993Z,4.57
2022-09-01T12:10:21.798Z,5.65
2022-09-01T12:12:48.281Z,6.00
2022-09-01T12:15:24.397Z,5.20
2022-09-01T12:17:51.930Z,5.53
2022-09-01T12:20:38.480Z,4.93
2022-09-01T12:23:22.768Z,4.60
2022-09-01T12:25:50.137Z,5.15
2022-09-01T12:28:17.006Z,4.95
2022-09-01T12:30:44.641Z,5.25
2022-09-01T12:33:29.312Z,4.45
2022-09-01T12:36:14.448Z,4.32
2022-09-01T12:38:41.042Z,4.38
2022-09-01T12:41:38.959Z,4.72
2022-09-01T12:44:30.308Z,3.92
2022-09-01T12:47:00.481Z,4.85
2022-09-01T12:49:36.492Z,4.90
2022-09-01T12:52:27.916Z,4.63
2022-09-01T12:55:03.888Z,5.30
2022-09-01T12:57:37.224Z,3.42
2022-09-01T13:00:19.702Z,4.57
2022-09-01T13:02:50.871Z,4.60
2022-09-01T13:08:02.827Z,5.22
2022-09-01T13:10:44.830Z,4.70
2022-09-01T13:13:13.645Z,4.45
2022-09-01T13:15:47.929Z,3.97
2022-09-01T13:18:15.256Z,3.80
2022-09-01T13:20:42.188Z,3.55
2022-09-01T13:23:09.605Z,4.55
2022-09-01T13:25:36.073Z,3.25
2022-09-01T13:28:03.737Z,3.90
2022-09-01T13:30:30.397Z,3.85
2022-09-01T13:35:44.511Z,3.88
2022-09-01T13:38:11.038Z,4.15
2022-09-01T13:40:37.669Z,3.78
2022-09-01T13:43:06.137Z,4.43
2022-09-01T13:45:33.698Z,3.17
2022-09-01T13:48:16.234Z,3.30
2022-09-01T13:53:31.993Z,3.40
2022-09-01T13:55:58.653Z,4.68
2022-09-01T13:58:25.170Z,4.78
2022-09-01T14:00:51.725Z,3.08
2022-09-01T14:03:22.157Z,3.17
2022-09-01T14:05:49.776Z,3.78
2022-09-01T14:08:19.664Z,3.75
2022-09-01T14:10:50.729Z,5.05
2022-09-01T14:15:44.624Z,4.00
2022-09-01T14:18:11.333Z,3.97
2022-09-01T14:20:41.628Z,2.58
2022-09-01T14:23:10.738Z,3.45
2022-09-01T14:25:42.157Z,4.15
2022-09-01T14:28:08.641Z,6.75
2022-09-01T14:30:35.158Z,5.93
2022-09-01T14:33:02.628Z,4.85
2022-09-01T14:35:31.999Z,4.20
2022-09-01T14:37:58.976Z,4.88
2022-09-01T14:40:26.041Z,4.00
2022-09-01T14:42:53.138Z,5.22
2022-09-01T14:45:25.373Z,3.80
2022-09-01T14:47:54.838Z,4.68
2022-09-01T14:50:23.263Z,5.03
2022-09-01T14:52:53.202Z,5.40
2022-09-01T14:55:21.983Z,4.53
2022-09-01T14:57:49.269Z,4.05
2022-09-01T15:00:17.253Z,4.20
2022-09-01T15:02:44.816Z,3.42
2022-09-01T15:05:12.800Z,3.95
2022-09-01T15:07:40.501Z,4.53
2022-09-01T15:10:10.089Z,4.00
2022-09-01T15:12:39.616Z,4.15
2022-09-01T15:15:07.874Z,4.68
2022-09-01T15:17:34.932Z,5.35
2022-09-01T15:20:21.824Z,4.15
2022-09-01T15:22:49.632Z,5.88
2022-09-01T15:25:16.845Z,7.55
2022-09-01T15:27:43.566Z,3.85
2022-09-01T15:30:17.820Z,4.20
2022-09-01T15:32:52.520Z,4.07
2022-09-01T15:35:20.756Z,4.05
2022-09-01T15:37:48.740Z,4.32
2022-09-01T15:40:16.762Z,5.03
2022-09-01T15:42:43.595Z,6.63
2022-09-01T15:45:17.187Z,6.25
2022-09-01T15:47:45.869Z,4.95
2022-09-01T15:50:21.962Z,3.60
2022-09-01T15:52:52.310Z,3.65
2022-09-01T15:55:22.550Z,3.90
2022-09-01T15:57:49.400Z,3.30
2022-09-01T16:00:17.757Z,4.30
2022-09-01T16:02:44.841Z,3.65
2022-09-01T16:05:12.574Z,3.80
2022-09-01T16:07:39.648Z,3.60
2022-09-01T16:10:11.827Z,4.18
2022-09-01T16:12:43.793Z,3.67
2022-09-01T16:15:13.777Z,3.47
2022-09-01T16:17:46.341Z,3.83
2022-09-01T16:20:20.290Z,3.60
2022-09-01T16:22:56.724Z,3.15
2022-09-01T16:25:29.703Z,3.97
2022-09-01T16:27:56.449Z,4.53
2022-09-01T16:30:27.825Z,3.80
2022-09-01T16:32:57.992Z,3.45
2022-09-01T16:35:44.696Z,3.60
2022-09-01T16:38:41.497Z,3.70
2022-09-01T16:41:30.548Z,4.32
2022-09-01T16:44:22.066Z,4.38
2022-09-01T16:49:48.989Z,3.60
2022-09-01T16:52:29.348Z,4.78
2022-09-01T16:55:13.128Z,3.78
2022-09-01T16:58:03.573Z,4.00
2022-09-01T17:00:57.919Z,4.65
2022-09-01T17:03:42.949Z,4.72
2022-09-01T17:06:25.454Z,5.95
2022-09-01T17:09:01.213Z,5.22
2022-09-01T17:11:48.327Z,3.50
2022-09-01T17:14:27.580Z,3.60
2022-09-01T17:17:09.120Z,3.85
2022-09-01T17:19:39.095Z,3.50
2022-09-01T17:22:10.536Z,4.60
2022-09-01T17:24:58.079Z,4.68
2022-09-01T17:27:53.302Z,5.18
2022-09-01T17:30:19.945Z,6.63
2022-09-01T17:33:17.566Z,4.70
2022-09-01T17:36:03.161Z,4.28
2022-09-01T17:38:54.177Z,7.25
2022-09-01T17:41:44.660Z,3.92
2022-09-01T17:44:22.823Z,5.43
2022-09-01T17:47:01.909Z,4.57
2022-09-01T17:49:33.194Z,3.83
2022-09-01T17:52:08.840Z,4.35
2022-09-01T17:55:19.285Z,5.65
2022-09-01T17:58:04.723Z,4.85
2022-09-01T18:00:40.090Z,4.10
2022-09-01T18:03:18.824Z,5.60
2022-09-01T18:05:53.534Z,4.40
2022-09-01T18:08:40.391Z,4.68
2022-09-01T18:11:12.821Z,5.20
2022-09-01T18:13:55.867Z,11.80
2022-09-01T18:16:30.951Z,4.60
2022-09-01T18:19:13.850Z,7.10
2022-09-01T18:21:49.510Z,5.95
2022-09-01T18:24:19.127Z,4.53
2022-09-01T18:26:49.625Z,4.68
2022-09-01T18:29:17.713Z,4.85
2022-09-01T18:31:56.935Z,7.03
2022-09-01T18:34:32.506Z,4.72
2022-09-01T18:37:39.445Z,5.32
2022-09-01T18:40:14.303Z,5.50
2022-09-01T18:43:05.692Z,7.40
2022-09-01T18:45:36.935Z,6.35
2022-09-01T18:48:40.216Z,8.18
2022-09-01T18:51:24.460Z,6.45
2022-09-01T18:54:09.907Z,6.88
2022-09-01T18:56:47.240Z,5.47
2022-09-01T18:59:34.823Z,7.20
2022-09-01T19:02:37.457Z,6.47
2022-09-01T19:05:25.073Z,6.38
2022-09-01T19:08:10.204Z,6.25
2022-09-01T19:10:43.850Z,5.95
2022-09-01T19:13:18.873Z,5.90
2022-09-01T19:15:57.069Z,5.45
2022-09-01T19:18:43.164Z,9.00
2022-09-01T19:21:32.691Z,7.07
2022-09-01T19:24:05.874Z,8.25
2022-09-01T19:26:39.093Z,5.78
2022-09-01T19:29:10.013Z,5.38
2022-09-01T19:31:42.338Z,6.82
2022-09-01T19:34:16.739Z,7.10
2022-09-01T19:36:56.923Z,6.32
2022-09-01T19:39:39.429Z,5.13
2022-09-01T19:42:25.316Z,5.75
2022-09-01T19:45:06.699Z,6.45
2022-09-01T19:47:36.884Z,6.93
2022-09-01T19:50:09.345Z,7.30
2022-09-01T19:52:49.964Z,6.18
2022-09-01T19:55:31.451Z,7.20
2022-09-01T19:58:13.783Z,5.45
2022-09-01T20:00:51.011Z,5.32
2022-09-01T20:03:40.109Z,7.53
2022-09-01T20:06:13.680Z,5.32
2022-09-01T20:08:46.541Z,9.55
2022-09-01T20:11:51.928Z,4.93
2022-09-01T20:14:30.628Z,6.78
2022-09-01T20:17:01.532Z,5.55
2022-09-01T20:19:52.228Z,9.00
2022-09-01T20:22:41.693Z,6.00
2022-09-01T20:25:13.868Z,7.05
2022-09-01T20:27:48.847Z,5.32
2022-09-01T20:30:24.865Z,6.18
2022-09-01T20:33:00.424Z,5.47
2022-09-01T20:35:48.719Z,10.73
2022-09-01T20:39:03.649Z,8.57
2022-09-01T20:41:41.808Z,7.13
2022-09-01T20:44:15.529Z,8.23
2022-09-01T20:46:41.999Z,6.38
2022-09-01T20:49:15.827Z,7.88
2022-09-01T20:51:55.662Z,10.02
2022-09-01T20:54:32.080Z,7.03
2022-09-01T20:57:13.660Z,9.02
2022-09-01T20:59:42.792Z,6.95
2022-09-01T21:02:26.494Z,6.57
2022-09-01T21:04:59.229Z,7.88
2022-09-01T21:07:35.288Z,7.97
2022-09-01T21:10:20.248Z,8.00
2022-09-01T21:13:08.728Z,7.07
2022-09-01T21:15:59.956Z,7.60
2022-09-01T21:18:51.567Z,8.82
2022-09-01T21:21:37.073Z,9.35
2022-09-01T21:24:04.860Z,6.80
2022-09-01T21:26:34.259Z,6.13
2022-09-01T21:29:17.181Z,7.28
2022-09-01T21:34:12.742Z,7.00
2022-09-01T21:36:42.773Z,7.28
2022-09-01T21:39:09.269Z,10.57
2022-09-01T21:41:35.737Z,8.02
2022-09-01T21:44:02.526Z,8.02
2022-09-01T21:46:29.170Z,10.18
2022-09-01T21:48:55.712Z,7.18
2022-09-01T21:51:22.180Z,8.85
2022-09-01T21:53:48.656Z,9.68
2022-09-01T21:56:15.286Z,8.82
2022-09-01T21:58:41.746Z,7.07
2022-09-01T22:01:08.355Z,7.25
2022-09-01T22:03:38.542Z,6.75
2022-09-01T22:06:05.657Z,8.50
2022-09-01T22:08:32.165Z,7.88
2022-09-01T22:10:58.848Z,7.28
2022-09-01T22:13:25.395Z,6.85
2022-09-01T22:15:53.832Z,6.80
2022-09-01T22:18:21.503Z,6.70
2022-09-01T22:20:48.653Z,6.88
2022-09-01T22:23:16.154Z,8.07
2022-09-01T22:25:45.805Z,6.97
2022-09-01T22:28:12.600Z,11.93
2022-09-01T22:30:50.860Z,10.88
2022-09-01T22:33:19.521Z,8.27
2022-09-01T22:35:49.210Z,7.63
2022-09-01T22:38:16.240Z,8.23
2022-09-01T22:40:51.576Z,9.70
2022-09-01T22:43:18.914Z,7.15
2022-09-01T22:45:47.903Z,6.50
2022-09-01T22:48:15.591Z,7.55
2022-09-01T22:50:44.220Z,10.38
2022-09-01T22:53:11.521Z,13.18
2022-09-01T22:55:39.756Z,8.63
2022-09-01T22:58:09.736Z,8.73
2022-09-01T23:00:36.665Z,6.93
2022-09-01T23:03:04.356Z,10.75
2022-09-01T23:05:31.585Z,8.40
2022-09-01T23:07:58.964Z,7.47
2022-09-01T23:10:26.084Z,8.55
2022-09-01T23:12:52.569Z,9.38
2022-09-01T23:15:19.121Z,9.00
2022-09-01T23:17:45.640Z,7.75
2022-09-01T23:20:15.865Z,8.38
2022-09-01T23:22:44.362Z,8.98
2022-09-01T23:25:13.241Z,8.85
2022-09-01T23:27:40.572Z,13.23
2022-09-01T23:30:09.337Z,6.75
2022-09-01T23:32:36.611Z,7.05
2022-09-01T23:35:04.124Z,6.78
2022-09-01T23:37:30.600Z,9.38
2022-09-01T23:39:57.392Z,6.95
2022-09-01T23:42:24.302Z,8.15
2022-09-01T23:44:50.816Z,9.68
2022-09-01T23:47:17.329Z,10.38
2022-09-01T23:49:43.839Z,9.07
2022-09-01T23:52:10.321Z,7.00
2022-09-01T23:54:36.809Z,7.43
2022-09-01T23:57:03.523Z,7.78
2022-09-01T23:59:29.969Z,7.68
